Terminal Aerodrome Forecast
Issued by NWS Paducah, KY

Home | Current Version | Previous Version | Text Only | Print | Product List | Glossary Off
Versions: 1 2 3 4 5 6 7 8 9 10 11 12 13 14 15

000
FTUS43 KPAH 251129
TAFEVV
TAF
KEVV 251129Z 2512/2612 16010G15KT P6SM VCSH SCT050 BKN080
     FM251400 17013G21KT P6SM -SHRA BKN035
      TEMPO 2522/2602 3SM -TSRA BR OVC030CB
     FM260200 15006KT P6SM BKN050=

USA.gov is the U.S. government's official web portal to all federal, state and local government web resources and services.